createdAt,value
2019-03-06T00:00:38.388Z,1007.98
2019-03-06T00:01:36.891Z,1007.97
2019-03-06T00:02:35.247Z,1007.98
2019-03-06T00:03:35.092Z,1008.03
2019-03-06T00:04:35.058Z,1008.04
2019-03-06T00:05:35.063Z,1008.05
2019-03-06T00:06:34.983Z,1008.02
2019-03-06T00:07:34.956Z,1007.98
2019-03-06T00:08:34.916Z,1007.94
2019-03-06T00:09:34.881Z,1007.95
2019-03-06T00:10:34.849Z,1007.93
2019-03-06T00:11:34.832Z,1007.95
2019-03-06T00:12:34.770Z,1007.90
2019-03-06T00:13:34.735Z,1007.95
2019-03-06T00:14:34.708Z,1007.95
2019-03-06T00:15:35.284Z,1007.99
2019-03-06T00:16:34.654Z,1007.96
2019-03-06T00:17:34.594Z,1007.94
2019-03-06T00:18:34.559Z,1007.95
2019-03-06T00:19:34.538Z,1007.92
2019-03-06T00:20:34.491Z,1007.96
2019-03-06T00:21:34.474Z,1007.92
2019-03-06T00:22:34.423Z,1007.94
2019-03-06T00:23:34.386Z,1007.88
2019-03-06T00:24:34.358Z,1007.87
2019-03-06T00:25:34.314Z,1007.86
2019-03-06T00:26:34.332Z,1007.87
2019-03-06T00:27:34.248Z,1007.91
2019-03-06T00:28:34.207Z,1007.92
2019-03-06T00:29:34.175Z,1007.97
2019-03-06T00:30:34.135Z,1007.97
2019-03-06T00:31:34.147Z,1007.96
2019-03-06T00:32:34.063Z,1008.00
2019-03-06T00:33:34.028Z,1008.00
2019-03-06T00:34:34.000Z,1007.98
2019-03-06T00:35:34.787Z,1008.01
2019-03-06T00:36:33.954Z,1007.97
2019-03-06T00:37:33.892Z,1007.96
2019-03-06T00:38:33.855Z,1008.00
2019-03-06T00:39:33.824Z,1007.97
2019-03-06T00:40:33.785Z,1008.01
2019-03-06T00:41:33.826Z,1008.01
2019-03-06T00:42:33.709Z,1008.00
2019-03-06T00:43:33.695Z,1008.02
2019-03-06T00:44:33.646Z,1008.05
2019-03-06T00:45:33.611Z,1008.04
2019-03-06T00:46:33.610Z,1008.03
2019-03-06T00:47:33.536Z,1008.03
2019-03-06T00:48:33.508Z,1008.00
2019-03-06T00:49:33.464Z,1008.04
2019-03-06T00:50:34.341Z,1008.02
2019-03-06T00:51:34.286Z,1008.00
2019-03-06T00:52:33.401Z,1008.03
2019-03-06T00:53:34.296Z,1008.03
2019-03-06T00:54:33.287Z,1008.00
2019-03-06T00:55:33.258Z,1008.06
2019-03-06T00:56:33.219Z,1008.09
2019-03-06T00:57:33.209Z,1008.05
2019-03-06T00:58:33.141Z,1008.01
2019-03-06T00:59:33.786Z,1008.04
2019-03-06T01:00:33.083Z,1008.05
2019-03-06T01:01:33.791Z,1008.04
2019-03-06T01:02:33.032Z,1008.09
2019-03-06T01:03:33.793Z,1008.09
2019-03-06T01:04:32.939Z,1008.07
2019-03-06T01:05:33.789Z,1008.15
2019-03-06T01:06:33.786Z,1008.13
2019-03-06T01:07:32.850Z,1008.14
2019-03-06T01:08:32.792Z,1008.18
2019-03-06T01:09:32.757Z,1008.16
2019-03-06T01:10:32.716Z,1008.16
2019-03-06T01:11:32.684Z,1008.16
2019-03-06T01:12:32.674Z,1008.16
2019-03-06T01:13:32.644Z,1008.19
2019-03-06T01:14:32.576Z,1008.20
2019-03-06T01:15:33.291Z,1008.18
2019-03-06T01:16:33.290Z,1008.20
2019-03-06T01:17:32.499Z,1008.17
2019-03-06T01:18:33.294Z,1008.18
2019-03-06T01:19:33.295Z,1008.18
2019-03-06T01:20:33.303Z,1008.14
2019-03-06T01:21:32.332Z,1008.16
2019-03-06T01:22:32.328Z,1008.15
2019-03-06T01:23:32.259Z,1008.14
2019-03-06T01:24:32.789Z,1008.15
2019-03-06T01:25:32.189Z,1008.14
2019-03-06T01:26:32.156Z,1008.13
2019-03-06T01:27:32.142Z,1008.14
2019-03-06T01:28:32.086Z,1008.14
2019-03-06T01:29:32.041Z,1008.12
2019-03-06T01:30:32.007Z,1008.13
2019-03-06T01:31:32.790Z,1008.16
2019-03-06T01:32:31.966Z,1008.14
2019-03-06T01:33:31.905Z,1008.15
2019-03-06T01:34:31.868Z,1008.15
2019-03-06T01:35:31.837Z,1008.11
2019-03-06T01:36:32.293Z,1008.11
2019-03-06T01:37:31.850Z,1008.15
2019-03-06T01:38:31.728Z,1008.16
2019-03-06T01:39:31.692Z,1008.12
2019-03-06T01:40:31.652Z,1008.22
2019-03-06T01:41:31.617Z,1008.20
2019-03-06T01:42:31.580Z,1008.17
2019-03-06T01:43:31.574Z,1008.16
2019-03-06T01:44:31.521Z,1008.13
2019-03-06T01:45:31.492Z,1008.16
2019-03-06T01:46:31.445Z,1008.15
2019-03-06T01:47:31.413Z,1008.16
2019-03-06T01:48:31.416Z,1008.21
2019-03-06T01:49:31.335Z,1008.18
2019-03-06T01:50:31.329Z,1008.24
2019-03-06T01:51:31.264Z,1008.24
2019-03-06T01:52:31.225Z,1008.22
2019-03-06T01:53:31.223Z,1008.24
2019-03-06T01:54:31.158Z,1008.23
2019-03-06T01:55:31.799Z,1008.22
2019-03-06T01:56:31.082Z,1008.24
2019-03-06T01:57:31.795Z,1008.29
2019-03-06T01:58:31.327Z,1008.28
2019-03-06T01:59:30.981Z,1008.30
2019-03-06T02:00:30.953Z,1008.28
2019-03-06T02:01:30.904Z,1008.27
2019-03-06T02:02:31.021Z,1008.27
2019-03-06T02:03:30.861Z,1008.29
2019-03-06T02:04:30.800Z,1008.26
2019-03-06T02:05:30.761Z,1008.29
2019-03-06T02:06:30.723Z,1008.32
2019-03-06T02:07:30.689Z,1008.30
2019-03-06T02:08:30.829Z,1008.36
2019-03-06T02:09:30.618Z,1008.35
2019-03-06T02:10:31.293Z,1008.38
2019-03-06T02:11:30.547Z,1008.39
2019-03-06T02:12:30.508Z,1008.43
2019-03-06T02:13:30.824Z,1008.41
2019-03-06T02:14:30.456Z,1008.44
2019-03-06T02:15:31.292Z,1008.40
2019-03-06T02:16:30.373Z,1008.42
2019-03-06T02:17:30.331Z,1008.40
2019-03-06T02:18:30.325Z,1008.40
2019-03-06T02:19:30.258Z,1008.35
2019-03-06T02:20:30.226Z,1008.39
2019-03-06T02:21:30.794Z,1008.36
2019-03-06T02:22:30.163Z,1008.34
2019-03-06T02:23:30.341Z,1008.30
2019-03-06T02:24:30.796Z,1008.30
2019-03-06T02:25:30.048Z,1008.27
2019-03-06T02:26:30.013Z,1008.27
2019-03-06T02:27:30.793Z,1008.27
2019-03-06T02:28:29.946Z,1008.30
2019-03-06T02:29:29.927Z,1008.25
2019-03-06T02:30:30.799Z,1008.24
2019-03-06T02:31:29.833Z,1008.26
2019-03-06T02:32:29.795Z,1008.34
2019-03-06T02:33:29.757Z,1008.30
2019-03-06T02:34:29.750Z,1008.32
2019-03-06T02:35:29.701Z,1008.31
2019-03-06T02:36:29.653Z,1008.31
2019-03-06T02:37:30.303Z,1008.37
2019-03-06T02:38:29.577Z,1008.34
2019-03-06T02:39:29.569Z,1008.32
2019-03-06T02:40:29.508Z,1008.31
2019-03-06T02:41:29.476Z,1008.34
2019-03-06T02:42:31.848Z,1008.38
2019-03-06T02:43:50.450Z,1008.37
2019-03-06T02:44:29.413Z,1008.39
2019-03-06T02:45:30.304Z,1008.40
2019-03-06T02:46:29.332Z,1008.38
2019-03-06T02:47:29.325Z,1008.40
2019-03-06T02:48:29.225Z,1008.36
2019-03-06T02:49:29.348Z,1008.35
2019-03-06T02:50:29.833Z,1008.35
2019-03-06T02:51:32.261Z,1008.34
2019-03-06T02:52:29.798Z,1008.39
2019-03-06T02:53:29.842Z,1008.39
2019-03-06T02:54:29.023Z,1008.36
2019-03-06T02:55:28.967Z,1008.39
2019-03-06T02:56:28.957Z,1008.38
2019-03-06T02:57:28.973Z,1008.38
2019-03-06T02:58:28.861Z,1008.34
2019-03-06T02:59:28.846Z,1008.39
2019-03-06T03:00:28.810Z,1008.39
2019-03-06T03:01:28.762Z,1008.37
2019-03-06T03:02:28.714Z,1008.38
2019-03-06T03:03:28.683Z,1008.37
2019-03-06T03:04:28.685Z,1008.39
2019-03-06T03:05:28.629Z,1008.38
2019-03-06T03:06:28.567Z,1008.37
2019-03-06T03:07:29.240Z,1008.41
2019-03-06T03:08:28.500Z,1008.40
2019-03-06T03:09:28.484Z,1008.39
2019-03-06T03:10:28.425Z,1008.37
2019-03-06T03:11:28.391Z,1008.37
2019-03-06T03:12:28.353Z,1008.42
2019-03-06T03:13:28.333Z,1008.46
2019-03-06T03:14:28.348Z,1008.45
2019-03-06T03:15:28.279Z,1008.43
2019-03-06T03:16:28.812Z,1008.40
2019-03-06T03:17:28.178Z,1008.44
2019-03-06T03:18:28.150Z,1008.47
2019-03-06T03:19:28.103Z,1008.43
2019-03-06T03:20:28.090Z,1008.47
2019-03-06T03:21:28.054Z,1008.46
2019-03-06T03:22:28.058Z,1008.48
2019-03-06T03:23:27.960Z,1008.47
2019-03-06T03:24:28.832Z,1008.46
2019-03-06T03:25:27.973Z,1008.48
2019-03-06T03:26:28.801Z,1008.47
2019-03-06T03:27:27.845Z,1008.47
2019-03-06T03:28:27.776Z,1008.47
2019-03-06T03:29:27.777Z,1008.45
2019-03-06T03:30:27.739Z,1008.43
2019-03-06T03:31:27.681Z,1008.42
2019-03-06T03:32:28.322Z,1008.39
2019-03-06T03:33:27.632Z,1008.44
2019-03-06T03:34:27.570Z,1008.40
2019-03-06T03:35:29.885Z,1008.40
2019-03-06T03:36:28.257Z,1008.41
2019-03-06T03:37:27.453Z,1008.37
2019-03-06T03:38:27.419Z,1008.41
2019-03-06T03:39:27.460Z,1008.37
2019-03-06T03:40:28.765Z,1008.39
2019-03-06T03:41:27.324Z,1008.39
2019-03-06T03:42:27.269Z,1008.38
2019-03-06T03:43:28.257Z,1008.36
2019-03-06T03:44:27.816Z,1008.40
2019-03-06T03:45:27.204Z,1008.39
2019-03-06T03:46:27.210Z,1008.41
2019-03-06T03:47:27.111Z,1008.43
2019-03-06T03:48:27.815Z,1008.43
2019-03-06T03:49:27.985Z,1008.38
2019-03-06T03:50:27.012Z,1008.41
2019-03-06T03:51:26.956Z,1008.41
2019-03-06T03:52:26.905Z,1008.38
2019-03-06T03:53:27.716Z,1008.35
2019-03-06T03:54:28.945Z,1008.37
2019-03-06T03:55:28.983Z,1008.39
2019-03-06T03:56:32.725Z,1008.46
2019-03-06T03:57:26.730Z,1008.45
2019-03-06T03:58:27.356Z,1008.46
2019-03-06T03:59:27.310Z,1008.50
2019-03-06T04:00:26.652Z,1008.45
2019-03-06T04:01:26.582Z,1008.45
2019-03-06T04:02:26.551Z,1008.46
2019-03-06T04:03:27.822Z,1008.48
2019-03-06T04:04:26.470Z,1008.48
2019-03-06T04:05:26.572Z,1008.50
2019-03-06T04:06:27.304Z,1008.49
2019-03-06T04:07:26.399Z,1008.49
2019-03-06T04:08:31.226Z,1008.45
2019-03-06T04:09:26.858Z,1008.50
2019-03-06T04:10:26.361Z,1008.48
2019-03-06T04:11:26.808Z,1008.49
2019-03-06T04:12:26.809Z,1008.48
2019-03-06T04:13:28.805Z,1008.48
2019-03-06T04:14:29.206Z,1008.43
2019-03-06T04:15:27.816Z,1008.46
2019-03-06T04:16:26.346Z,1008.47
2019-03-06T04:17:26.809Z,1008.46
2019-03-06T04:18:28.804Z,1008.41
2019-03-06T04:19:25.943Z,1008.40
2019-03-06T04:20:26.015Z,1008.37
2019-03-06T04:21:26.045Z,1008.38
2019-03-06T04:22:32.704Z,1008.40
2019-03-06T04:23:25.790Z,1008.38
2019-03-06T04:24:26.318Z,1008.38
2019-03-06T04:25:28.711Z,1008.37
2019-03-06T04:26:25.723Z,1008.36
2019-03-06T04:27:26.315Z,1008.35
2019-03-06T04:28:27.917Z,1008.38
2019-03-06T04:29:25.567Z,1008.36
2019-03-06T04:30:25.528Z,1008.36
2019-03-06T04:31:25.524Z,1008.35
2019-03-06T04:32:25.458Z,1008.33
2019-03-06T04:33:25.424Z,1008.35
2019-03-06T04:34:25.418Z,1008.37
2019-03-06T04:35:25.353Z,1008.34
2019-03-06T04:36:25.351Z,1008.39
2019-03-06T04:37:25.274Z,1008.36
2019-03-06T04:38:25.808Z,1008.35
2019-03-06T04:39:25.209Z,1008.37
2019-03-06T04:40:25.169Z,1008.38
2019-03-06T04:41:25.158Z,1008.40
2019-03-06T04:42:25.811Z,1008.40
2019-03-06T04:43:25.057Z,1008.37
2019-03-06T04:44:25.028Z,1008.37
2019-03-06T04:45:24.984Z,1008.38
2019-03-06T04:46:24.976Z,1008.35
2019-03-06T04:47:24.919Z,1008.34
2019-03-06T04:48:24.882Z,1008.37
2019-03-06T04:49:24.842Z,1008.29
2019-03-06T04:50:24.801Z,1008.31
2019-03-06T04:51:24.842Z,1008.30
2019-03-06T04:52:24.735Z,1008.32
2019-03-06T04:53:24.702Z,1008.32
2019-03-06T04:54:24.659Z,1008.32
2019-03-06T04:55:24.627Z,1008.34
2019-03-06T04:56:24.610Z,1008.32
2019-03-06T04:57:24.548Z,1008.31
2019-03-06T04:58:26.313Z,1008.31
2019-03-06T04:59:24.476Z,1008.30
2019-03-06T05:00:24.461Z,1008.34
2019-03-06T05:01:24.428Z,1008.35
2019-03-06T05:02:25.325Z,1008.41
2019-03-06T05:03:24.330Z,1008.39
2019-03-06T05:04:24.295Z,1008.45
2019-03-06T05:05:24.253Z,1008.43
2019-03-06T05:06:24.250Z,1008.45
2019-03-06T05:07:24.191Z,1008.47
2019-03-06T05:08:24.814Z,1008.46
2019-03-06T05:09:24.112Z,1008.44
2019-03-06T05:10:24.080Z,1008.43
2019-03-06T05:11:24.196Z,1008.42
2019-03-06T05:12:23.995Z,1008.47
2019-03-06T05:13:25.324Z,1008.43
2019-03-06T05:14:23.929Z,1008.43
2019-03-06T05:15:23.889Z,1008.43
2019-03-06T05:16:23.852Z,1008.46
2019-03-06T05:17:24.339Z,1008.47
2019-03-06T05:18:23.777Z,1008.46
2019-03-06T05:19:23.742Z,1008.46
2019-03-06T05:20:23.706Z,1008.43
2019-03-06T05:21:23.670Z,1008.46
2019-03-06T05:22:23.656Z,1008.45
2019-03-06T05:23:23.593Z,1008.46
2019-03-06T05:24:23.562Z,1008.49
2019-03-06T05:25:23.527Z,1008.47
2019-03-06T05:26:23.485Z,1008.48
2019-03-06T05:27:23.848Z,1008.48
2019-03-06T05:28:23.420Z,1008.51
2019-03-06T05:29:23.379Z,1008.49
2019-03-06T05:30:23.338Z,1008.56
2019-03-06T05:31:23.304Z,1008.56
2019-03-06T05:32:23.299Z,1008.56
2019-03-06T05:33:23.241Z,1008.58
2019-03-06T05:34:23.809Z,1008.55
2019-03-06T05:35:23.153Z,1008.52
2019-03-06T05:36:23.124Z,1008.54
2019-03-06T05:37:23.108Z,1008.55
2019-03-06T05:38:23.043Z,1008.48
2019-03-06T05:39:23.005Z,1008.51
2019-03-06T05:40:22.970Z,1008.50
2019-03-06T05:41:22.933Z,1008.48
2019-03-06T05:42:23.337Z,1008.44
2019-03-06T05:43:22.862Z,1008.47
2019-03-06T05:44:22.824Z,1008.50
2019-03-06T05:45:22.849Z,1008.52
2019-03-06T05:46:23.303Z,1008.55
2019-03-06T05:47:22.735Z,1008.55
2019-03-06T05:48:22.675Z,1008.52
2019-03-06T05:49:22.639Z,1008.51
2019-03-06T05:50:23.303Z,1008.48
2019-03-06T05:51:22.567Z,1008.49
2019-03-06T05:52:22.530Z,1008.51
2019-03-06T05:53:22.515Z,1008.52
2019-03-06T05:54:22.466Z,1008.51
2019-03-06T05:55:22.419Z,1008.51
2019-03-06T05:56:22.383Z,1008.51
2019-03-06T05:57:22.353Z,1008.53
2019-03-06T05:58:22.334Z,1008.50
2019-03-06T05:59:22.273Z,1008.50
2019-03-06T06:00:22.238Z,1008.51
2019-03-06T06:01:22.206Z,1008.43
2019-03-06T06:02:22.165Z,1008.44
2019-03-06T06:03:22.150Z,1008.48
2019-03-06T06:04:22.096Z,1008.42
2019-03-06T06:05:22.058Z,1008.45
2019-03-06T06:06:22.806Z,1008.43
2019-03-06T06:07:22.101Z,1008.44
2019-03-06T06:08:22.001Z,1008.41
2019-03-06T06:09:31.311Z,1008.42
2019-03-06T06:10:22.820Z,1008.44
2019-03-06T06:11:22.823Z,1008.40
2019-03-06T06:12:21.799Z,1008.41
2019-03-06T06:13:21.798Z,1008.40
2019-03-06T06:14:22.326Z,1008.37
2019-03-06T06:15:21.693Z,1008.35
2019-03-06T06:16:22.320Z,1008.30
2019-03-06T06:17:21.622Z,1008.33
2019-03-06T06:18:22.232Z,1008.31
2019-03-06T06:19:21.544Z,1008.31
2019-03-06T06:20:21.514Z,1008.31
2019-03-06T06:21:22.335Z,1008.30
2019-03-06T06:22:21.436Z,1008.29
2019-03-06T06:23:21.423Z,1008.32
2019-03-06T06:24:21.362Z,1008.30
2019-03-06T06:25:21.323Z,1008.32
2019-03-06T06:26:21.822Z,1008.29
2019-03-06T06:27:21.824Z,1008.28
2019-03-06T06:28:21.254Z,1008.27
2019-03-06T06:29:21.189Z,1008.30
2019-03-06T06:30:22.136Z,1008.28
2019-03-06T06:31:21.822Z,1008.28
2019-03-06T06:32:21.068Z,1008.34
2019-03-06T06:33:21.114Z,1008.32
2019-03-06T06:34:21.000Z,1008.36
2019-03-06T06:35:21.824Z,1008.31
2019-03-06T06:36:20.938Z,1008.33
2019-03-06T06:37:21.824Z,1008.36
2019-03-06T06:38:20.882Z,1008.41
2019-03-06T06:39:20.843Z,1008.40
2019-03-06T06:40:20.797Z,1008.40
2019-03-06T06:41:20.756Z,1008.44
2019-03-06T06:42:21.320Z,1008.45
2019-03-06T06:43:20.673Z,1008.47
2019-03-06T06:44:20.666Z,1008.51
2019-03-06T06:45:20.606Z,1008.50
2019-03-06T06:46:20.566Z,1008.49
2019-03-06T06:47:21.326Z,1008.48
2019-03-06T06:48:20.507Z,1008.47
2019-03-06T06:49:20.489Z,1008.42
2019-03-06T06:50:20.422Z,1008.41
2019-03-06T06:51:20.386Z,1008.39
2019-03-06T06:52:21.337Z,1008.38
2019-03-06T06:53:20.338Z,1008.41
2019-03-06T06:54:20.354Z,1008.37
2019-03-06T06:55:20.271Z,1008.38
2019-03-06T06:56:20.825Z,1008.33
2019-03-06T06:57:20.170Z,1008.31
2019-03-06T06:58:20.185Z,1008.31
2019-03-06T06:59:21.229Z,1008.29
2019-03-06T07:00:20.823Z,1008.30
2019-03-06T07:01:20.032Z,1008.30
2019-03-06T07:02:19.993Z,1008.27
2019-03-06T07:03:19.958Z,1008.32
2019-03-06T07:04:20.356Z,1008.30
2019-03-06T07:05:19.892Z,1008.35
2019-03-06T07:06:19.867Z,1008.33
2019-03-06T07:07:19.878Z,1008.34
2019-03-06T07:08:19.781Z,1008.29
2019-03-06T07:09:19.788Z,1008.30
2019-03-06T07:10:19.723Z,1008.31
2019-03-06T07:11:20.324Z,1008.31
2019-03-06T07:12:20.328Z,1008.32
2019-03-06T07:13:19.607Z,1008.31
2019-03-06T07:14:20.327Z,1008.30
2019-03-06T07:15:19.697Z,1008.27
2019-03-06T07:16:20.325Z,1008.23
2019-03-06T07:17:19.465Z,1008.21
2019-03-06T07:18:19.434Z,1008.28
2019-03-06T07:19:19.397Z,1008.26
2019-03-06T07:20:19.866Z,1008.25
2019-03-06T07:21:19.334Z,1008.23
2019-03-06T07:22:19.337Z,1008.25
2019-03-06T07:23:19.260Z,1008.21
2019-03-06T07:24:19.225Z,1008.22
2019-03-06T07:25:19.287Z,1008.24
2019-03-06T07:26:19.159Z,1008.24
2019-03-06T07:27:19.122Z,1008.25
2019-03-06T07:28:19.087Z,1008.21
2019-03-06T07:29:19.054Z,1008.27
2019-03-06T07:30:19.046Z,1008.31
2019-03-06T07:31:19.825Z,1008.35
2019-03-06T07:32:19.830Z,1008.38
2019-03-06T07:33:19.831Z,1008.43
2019-03-06T07:34:19.827Z,1008.43
2019-03-06T07:35:18.876Z,1008.44
2019-03-06T07:36:18.808Z,1008.43
2019-03-06T07:37:28.103Z,1008.44
2019-03-06T07:38:18.742Z,1008.43
2019-03-06T07:39:18.785Z,1008.39
2019-03-06T07:40:18.707Z,1008.40
2019-03-06T07:41:18.641Z,1008.41
2019-03-06T07:42:18.618Z,1008.36
2019-03-06T07:43:18.571Z,1008.31
2019-03-06T07:44:18.538Z,1008.32
2019-03-06T07:45:18.541Z,1008.32
2019-03-06T07:46:18.471Z,1008.35
2019-03-06T07:47:18.439Z,1008.36
2019-03-06T07:48:19.326Z,1008.36
2019-03-06T07:49:18.365Z,1008.39
2019-03-06T07:50:18.332Z,1008.37
2019-03-06T07:51:18.322Z,1008.36
2019-03-06T07:52:18.281Z,1008.33
2019-03-06T07:53:18.232Z,1008.35
2019-03-06T07:54:18.207Z,1008.29
2019-03-06T07:55:18.160Z,1008.31
2019-03-06T07:56:18.360Z,1008.21
2019-03-06T07:57:18.091Z,1008.29
2019-03-06T07:58:18.833Z,1008.27
2019-03-06T07:59:18.029Z,1008.23
2019-03-06T08:00:17.989Z,1008.20
2019-03-06T08:01:18.363Z,1008.20
2019-03-06T08:02:18.830Z,1008.20
2019-03-06T08:03:17.892Z,1008.22
2019-03-06T08:04:18.831Z,1008.19
2019-03-06T08:05:18.328Z,1008.18
2019-03-06T08:06:17.792Z,1008.24
2019-03-06T08:07:17.782Z,1008.26
2019-03-06T08:08:17.717Z,1008.25
2019-03-06T08:09:17.687Z,1008.22
2019-03-06T08:10:17.650Z,1008.20
2019-03-06T08:11:17.615Z,1008.22
2019-03-06T08:12:17.604Z,1008.21
2019-03-06T08:13:18.329Z,1008.17
2019-03-06T08:14:22.317Z,1008.17
2019-03-06T08:15:17.482Z,1008.15
2019-03-06T08:16:18.350Z,1008.16
2019-03-06T08:17:17.435Z,1008.10
2019-03-06T08:18:18.330Z,1008.10
2019-03-06T08:19:17.347Z,1008.11
2019-03-06T08:20:17.314Z,1008.08
2019-03-06T08:21:17.279Z,1008.10
2019-03-06T08:22:18.382Z,1008.10
2019-03-06T08:23:17.213Z,1008.09
2019-03-06T08:24:17.181Z,1008.04
2019-03-06T08:25:17.168Z,1008.11
2019-03-06T08:26:17.130Z,1008.06
2019-03-06T08:27:17.841Z,1008.05
2019-03-06T08:28:17.409Z,1008.08
2019-03-06T08:29:17.830Z,1008.06
2019-03-06T08:30:17.829Z,1008.05
2019-03-06T08:31:16.962Z,1008.09
2019-03-06T08:32:17.836Z,1008.06
2019-03-06T08:33:18.415Z,1008.05
2019-03-06T08:34:16.855Z,1008.00
2019-03-06T08:35:17.337Z,1008.08
2019-03-06T08:36:18.739Z,1008.02
2019-03-06T08:37:17.580Z,1008.02
2019-03-06T08:38:16.751Z,1008.01
2019-03-06T08:39:16.687Z,1008.01
2019-03-06T08:40:16.654Z,1008.02
2019-03-06T08:41:16.619Z,1008.02
2019-03-06T08:42:16.583Z,1007.99
2019-03-06T08:43:16.573Z,1007.99
2019-03-06T08:44:16.520Z,1008.00
2019-03-06T08:45:16.485Z,1007.93
2019-03-06T08:46:16.458Z,1007.97
2019-03-06T08:47:16.416Z,1007.96
2019-03-06T08:48:16.418Z,1007.92
2019-03-06T08:49:16.360Z,1007.92
2019-03-06T08:50:16.322Z,1007.89
2019-03-06T08:51:16.288Z,1007.87
2019-03-06T08:52:16.255Z,1007.90
2019-03-06T08:53:16.248Z,1007.90
2019-03-06T08:54:16.194Z,1007.91
2019-03-06T08:55:16.168Z,1007.90
2019-03-06T08:56:16.127Z,1007.88
2019-03-06T08:57:16.094Z,1007.85
2019-03-06T08:58:16.384Z,1007.81
2019-03-06T08:59:16.025Z,1007.88
2019-03-06T09:00:16.006Z,1007.88
2019-03-06T09:01:15.966Z,1007.83
2019-03-06T09:02:15.990Z,1007.83
2019-03-06T09:03:16.835Z,1007.81
2019-03-06T09:04:15.891Z,1007.85
2019-03-06T09:05:15.834Z,1007.79
2019-03-06T09:06:15.802Z,1007.79
2019-03-06T09:07:15.764Z,1007.77
2019-03-06T09:08:15.733Z,1007.79
2019-03-06T09:09:15.734Z,1007.78
2019-03-06T09:10:15.675Z,1007.79
2019-03-06T09:11:16.336Z,1007.76
2019-03-06T09:12:15.606Z,1007.79
2019-03-06T09:13:16.341Z,1007.75
2019-03-06T09:14:15.573Z,1007.71
2019-03-06T09:15:15.515Z,1007.62
2019-03-06T09:16:15.484Z,1007.64
2019-03-06T09:17:15.446Z,1007.56
2019-03-06T09:18:15.417Z,1007.59
2019-03-06T09:19:15.407Z,1007.57
2019-03-06T09:20:15.352Z,1007.59
2019-03-06T09:21:15.319Z,1007.56
2019-03-06T09:22:15.843Z,1007.51
2019-03-06T09:23:22.799Z,1007.48
2019-03-06T09:24:15.228Z,1007.45
2019-03-06T09:25:15.222Z,1007.44
2019-03-06T09:26:15.166Z,1007.43
2019-03-06T09:27:15.142Z,1007.35
2019-03-06T09:28:15.101Z,1007.38
2019-03-06T09:29:15.065Z,1007.43
2019-03-06T09:30:16.214Z,1007.36
2019-03-06T09:31:15.840Z,1007.34
2019-03-06T09:32:14.973Z,1007.29
2019-03-06T09:33:14.943Z,1007.30
2019-03-06T09:34:14.918Z,1007.32
2019-03-06T09:35:14.906Z,1007.25
2019-03-06T09:36:14.852Z,1007.28
2019-03-06T09:37:14.815Z,1007.26
2019-03-06T09:38:14.797Z,1007.29
2019-03-06T09:39:14.817Z,1007.21
2019-03-06T09:40:14.756Z,1007.25
2019-03-06T09:41:14.696Z,1007.22
2019-03-06T09:42:14.666Z,1007.21
2019-03-06T09:43:15.341Z,1007.20
2019-03-06T09:44:14.634Z,1007.16
2019-03-06T09:45:14.608Z,1007.18
2019-03-06T09:46:14.554Z,1007.16
2019-03-06T09:47:15.348Z,1007.13
2019-03-06T09:48:14.475Z,1007.19
2019-03-06T09:49:17.748Z,1007.20
2019-03-06T09:50:14.442Z,1007.17
2019-03-06T09:51:14.386Z,1007.15
2019-03-06T09:52:15.347Z,1007.16
2019-03-06T09:53:14.322Z,1007.13
2019-03-06T09:54:14.294Z,1007.10
2019-03-06T09:55:14.294Z,1007.07
2019-03-06T09:56:14.797Z,1007.05
2019-03-06T09:57:14.209Z,1007.03
2019-03-06T09:58:14.170Z,1007.02
2019-03-06T09:59:14.858Z,1006.97
2019-03-06T10:00:14.380Z,1006.97
2019-03-06T10:01:14.089Z,1006.98
2019-03-06T10:02:14.049Z,1006.97
2019-03-06T10:03:14.844Z,1006.99
2019-03-06T10:04:13.998Z,1007.02
2019-03-06T10:05:13.985Z,1007.04
2019-03-06T10:06:13.956Z,1007.01
2019-03-06T10:07:13.919Z,1007.00
2019-03-06T10:08:13.868Z,1007.00
2019-03-06T10:09:13.837Z,1007.02
2019-03-06T10:10:14.366Z,1007.02
2019-03-06T10:11:17.223Z,1006.92
2019-03-06T10:12:14.351Z,1006.89
2019-03-06T10:13:13.723Z,1006.89
2019-03-06T10:14:13.684Z,1006.87
2019-03-06T10:15:13.655Z,1006.88
2019-03-06T10:16:13.647Z,1006.78
2019-03-06T10:17:13.597Z,1006.85
2019-03-06T10:18:13.588Z,1006.89
2019-03-06T10:19:13.536Z,1006.84
2019-03-06T10:20:13.506Z,1006.85
2019-03-06T10:21:13.499Z,1006.86
2019-03-06T10:22:14.350Z,1006.85
2019-03-06T10:23:13.417Z,1006.90
2019-03-06T10:24:13.390Z,1006.93
2019-03-06T10:25:13.386Z,1006.87
2019-03-06T10:26:13.394Z,1006.88
2019-03-06T10:27:13.847Z,1006.88
2019-03-06T10:28:13.266Z,1006.93
2019-03-06T10:29:14.756Z,1006.88
2019-03-06T10:30:13.278Z,1006.90
2019-03-06T10:31:13.210Z,1006.84
2019-03-06T10:32:13.870Z,1006.79
2019-03-06T10:33:13.127Z,1006.74
2019-03-06T10:34:13.863Z,1006.69
2019-03-06T10:35:13.063Z,1006.68
2019-03-06T10:36:13.053Z,1006.65
2019-03-06T10:37:13.034Z,1006.58
2019-03-06T10:38:16.571Z,1006.59
2019-03-06T10:39:12.956Z,1006.55
2019-03-06T10:40:12.914Z,1006.57
2019-03-06T10:41:12.892Z,1006.55
2019-03-06T10:42:12.885Z,1006.56
2019-03-06T10:43:12.828Z,1006.47
2019-03-06T10:44:12.812Z,1006.51
2019-03-06T10:45:12.772Z,1006.51
2019-03-06T10:46:12.746Z,1006.58
2019-03-06T10:47:12.737Z,1006.48
2019-03-06T10:48:13.354Z,1006.50
2019-03-06T10:49:12.655Z,1006.59
2019-03-06T10:50:12.637Z,1006.54
2019-03-06T10:51:12.601Z,1006.51
2019-03-06T10:52:12.895Z,1006.48
2019-03-06T10:53:12.544Z,1006.47
2019-03-06T10:54:12.521Z,1006.48
2019-03-06T10:55:12.487Z,1006.44
2019-03-06T10:56:12.459Z,1006.41
2019-03-06T10:57:12.461Z,1006.40
2019-03-06T10:58:12.403Z,1006.42
2019-03-06T10:59:13.411Z,1006.32
2019-03-06T11:00:12.360Z,1006.37
2019-03-06T11:01:12.319Z,1006.35
2019-03-06T11:02:12.299Z,1006.37
2019-03-06T11:03:12.444Z,1006.34
2019-03-06T11:04:12.238Z,1006.32
2019-03-06T11:05:12.217Z,1006.37
2019-03-06T11:06:12.196Z,1006.35
2019-03-06T11:07:12.155Z,1006.25
2019-03-06T11:08:12.151Z,1006.28
2019-03-06T11:09:12.097Z,1006.26
2019-03-06T11:10:12.070Z,1006.28
2019-03-06T11:11:12.044Z,1006.21
2019-03-06T11:12:12.008Z,1006.20
2019-03-06T11:13:12.010Z,1006.16
2019-03-06T11:14:11.957Z,1006.17
2019-03-06T11:15:11.927Z,1006.14
2019-03-06T11:16:11.986Z,1006.17
2019-03-06T11:17:11.887Z,1006.18
2019-03-06T11:18:12.781Z,1006.13
2019-03-06T11:19:12.408Z,1006.11
2019-03-06T11:20:11.790Z,1006.08
2019-03-06T11:21:11.763Z,1006.06
2019-03-06T11:22:11.734Z,1006.03
2019-03-06T11:23:11.733Z,1006.04
2019-03-06T11:24:11.701Z,1005.97
2019-03-06T11:25:11.648Z,1005.96
2019-03-06T11:26:12.273Z,1005.95
2019-03-06T11:27:11.599Z,1005.92
2019-03-06T11:28:11.898Z,1005.94
2019-03-06T11:29:11.558Z,1005.91
2019-03-06T11:30:12.368Z,1005.93
2019-03-06T11:31:11.487Z,1005.93
2019-03-06T11:32:12.601Z,1005.93
2019-03-06T11:33:11.464Z,1005.95
2019-03-06T11:34:12.375Z,1005.93
2019-03-06T11:35:11.385Z,1005.91
2019-03-06T11:36:13.270Z,1005.88
2019-03-06T11:37:11.865Z,1005.86
2019-03-06T11:38:11.335Z,1005.84
2019-03-06T11:39:11.275Z,1005.81
2019-03-06T11:40:11.249Z,1005.82
2019-03-06T11:41:11.220Z,1005.80
2019-03-06T11:42:16.771Z,1005.74
2019-03-06T11:43:11.197Z,1005.76
2019-03-06T11:44:11.157Z,1005.80
2019-03-06T11:45:11.110Z,1005.83
2019-03-06T11:46:11.089Z,1005.71
2019-03-06T11:47:11.064Z,1005.78
2019-03-06T11:48:11.072Z,1005.75
2019-03-06T11:49:11.006Z,1005.72
2019-03-06T11:50:10.977Z,1005.68
2019-03-06T11:51:10.956Z,1005.71
2019-03-06T11:52:11.119Z,1005.71
2019-03-06T11:53:10.898Z,1005.73
2019-03-06T11:54:10.896Z,1005.65
2019-03-06T11:55:10.842Z,1005.64
2019-03-06T11:56:10.814Z,1005.65
2019-03-06T11:57:10.784Z,1005.63
2019-03-06T11:58:10.759Z,1005.60
2019-03-06T11:59:10.765Z,1005.57
2019-03-06T12:00:10.709Z,1005.54
2019-03-06T12:01:10.680Z,1005.53
2019-03-06T12:02:10.659Z,1005.52
2019-03-06T12:03:10.620Z,1005.47
2019-03-06T12:04:10.643Z,1005.45
2019-03-06T12:05:10.640Z,1005.45